createdAt,value
2019-03-03T00:01:00.940Z,95585.4
2019-03-03T00:02:03.097Z,95586
2019-03-03T00:03:05.544Z,95591.5
2019-03-03T00:04:07.970Z,95590.1
2019-03-03T00:05:10.121Z,95593.7
2019-03-03T00:06:12.548Z,95594.6
2019-03-03T00:07:14.997Z,95597.1
2019-03-03T00:08:17.128Z,95603.1
2019-03-03T00:09:19.554Z,95601
2019-03-03T00:10:21.977Z,95598.4
2019-03-03T00:11:24.137Z,95595.4
2019-03-03T00:12:26.568Z,95593
2019-03-03T00:13:29.004Z,95592
2019-03-03T00:14:31.433Z,95595.7
2019-03-03T00:15:33.044Z,95592.9
2019-03-03T00:16:35.203Z,95588
2019-03-03T00:17:37.644Z,95591
2019-03-03T00:18:39.788Z,95586.2
2019-03-03T00:19:41.679Z,95592.2
2019-03-03T00:20:44.110Z,95596
2019-03-03T00:21:46.551Z,95590.5
2019-03-03T00:22:48.679Z,95596.6
2019-03-03T00:23:51.118Z,95596.9
2019-03-03T00:24:53.548Z,95593.7
2019-03-03T00:25:55.979Z,95592.3
2019-03-03T00:26:58.407Z,95593.2
2019-03-03T00:28:00.290Z,95597.8
2019-03-03T00:29:02.723Z,95591.1
2019-03-03T00:30:05.159Z,95597.5
2019-03-03T00:31:07.607Z,95588.7
2019-03-03T00:32:09.518Z,95595.9
2019-03-03T00:33:11.676Z,95592.5
2019-03-03T00:34:13.584Z,95592.9
2019-03-03T00:35:15.749Z,95586.5
2019-03-03T00:36:18.171Z,95592.1
2019-03-03T00:37:20.598Z,95583.9
2019-03-03T00:38:23.068Z,95583.1
2019-03-03T00:39:25.499Z,95584.9
2019-03-03T00:40:27.367Z,95583.9
2019-03-03T00:41:29.809Z,95579.1
2019-03-03T00:42:32.237Z,95577.7
2019-03-03T00:43:34.657Z,95578.2
2019-03-03T00:44:37.079Z,95578.5
2019-03-03T00:45:38.976Z,95581.5
2019-03-03T00:46:41.138Z,95579.7
2019-03-03T00:47:43.572Z,95574.9
2019-03-03T00:48:46.000Z,95571.7
2019-03-03T00:49:47.903Z,95575.6
2019-03-03T00:50:50.057Z,95569.8
2019-03-03T00:51:52.226Z,95568.4
2019-03-03T00:52:54.375Z,95570.9
2019-03-03T00:53:56.802Z,95573.4
2019-03-03T00:54:58.926Z,95568.3
2019-03-03T00:56:01.086Z,95574.9
2019-03-03T00:57:03.251Z,95568.6
2019-03-03T00:58:05.679Z,95576
2019-03-03T00:59:08.106Z,95576.3
2019-03-03T01:00:10.541Z,95575.2
2019-03-03T01:01:12.971Z,95575.7
2019-03-03T01:02:15.397Z,95573.3
2019-03-03T01:03:17.820Z,95571.2
2019-03-03T01:04:19.710Z,95571.9
2019-03-03T01:05:22.146Z,95566.8
2019-03-03T01:06:24.324Z,95564.6
2019-03-03T01:07:26.755Z,95570.7
2019-03-03T01:08:29.206Z,95570.9
2019-03-03T01:09:31.637Z,95572.4
2019-03-03T01:10:33.799Z,95577.6
2019-03-03T01:11:36.229Z,95572.4
2019-03-03T01:12:38.106Z,95572
2019-03-03T01:13:40.535Z,95575
2019-03-03T01:14:42.960Z,95575.6
2019-03-03T01:15:45.094Z,95573.5
2019-03-03T01:16:47.247Z,95572.7
2019-03-03T01:17:49.392Z,95568.9
2019-03-03T01:18:51.849Z,95569
2019-03-03T01:19:54.275Z,95569.8
2019-03-03T01:20:56.411Z,95567.1
2019-03-03T01:21:58.845Z,95567.4
2019-03-03T01:23:03.049Z,95571.8
2019-03-03T01:24:05.636Z,95567.1
2019-03-03T01:25:07.532Z,95567
2019-03-03T01:26:09.975Z,95568.3
2019-03-03T01:27:27.057Z,95565.1
2019-03-03T01:28:29.484Z,95562.6
2019-03-03T01:29:31.915Z,95560.6
2019-03-03T01:30:33.527Z,95558.4
2019-03-03T01:31:35.956Z,95559.4
2019-03-03T01:32:38.134Z,95560.8
2019-03-03T01:33:40.289Z,95556.1
2019-03-03T01:34:42.444Z,95555
2019-03-03T01:35:44.879Z,95554.2
2019-03-03T01:36:47.302Z,95554.5
2019-03-03T01:37:49.736Z,95554.1
2019-03-03T01:38:51.909Z,95553.1
2019-03-03T01:39:54.089Z,95554
2019-03-03T01:40:56.539Z,95553.7
2019-03-03T01:41:58.949Z,95555.4
2019-03-03T01:43:01.377Z,95553.9
2019-03-03T01:44:03.811Z,95559.7
2019-03-03T01:45:06.225Z,95555.5
2019-03-03T01:46:08.649Z,95562.4
2019-03-03T01:47:10.799Z,95556.8
2019-03-03T01:48:12.953Z,95559.3
2019-03-03T01:49:15.096Z,95553.3
2019-03-03T01:50:17.545Z,95563.1
2019-03-03T01:51:19.982Z,95563.9
2019-03-03T01:52:22.398Z,95557.3
2019-03-03T01:53:24.820Z,95559
2019-03-03T01:54:26.976Z,95566.6
2019-03-03T01:55:28.573Z,95566.8
2019-03-03T01:56:31.000Z,95562.4
2019-03-03T01:57:33.444Z,95564.6
2019-03-03T01:58:35.859Z,95562.4
2019-03-03T01:59:38.014Z,95574
2019-03-03T02:00:40.438Z,95566.1
2019-03-03T02:01:42.598Z,95569.9
2019-03-03T02:02:45.049Z,95566.9
2019-03-03T02:03:47.227Z,95566.2
2019-03-03T02:04:49.388Z,95560.9
2019-03-03T02:05:51.838Z,95569.2
2019-03-03T02:06:54.257Z,95568.8
2019-03-03T02:07:56.396Z,95564.9
2019-03-03T02:08:58.823Z,95566.5
2019-03-03T02:10:01.250Z,95563.6
2019-03-03T02:11:03.411Z,95557
2019-03-03T02:12:05.585Z,95559
2019-03-03T02:13:08.016Z,95557.4
2019-03-03T02:14:10.451Z,95558.3
2019-03-03T02:15:12.598Z,95555.9
2019-03-03T02:16:15.029Z,95552.5
2019-03-03T02:17:16.889Z,95555.1
2019-03-03T02:18:19.324Z,95552.9
2019-03-03T02:19:21.749Z,95557.3
2019-03-03T02:20:24.192Z,95559.8
2019-03-03T02:21:26.630Z,95555.7
2019-03-03T02:22:28.487Z,95556.6
2019-03-03T02:23:30.926Z,95555.5
2019-03-03T02:24:32.819Z,95557.5
2019-03-03T02:25:35.249Z,95556.1
2019-03-03T02:26:37.391Z,95552.7
2019-03-03T02:27:39.820Z,95556.7
2019-03-03T02:28:42.239Z,95552.3
2019-03-03T02:29:44.671Z,95551
2019-03-03T02:30:47.097Z,95554.5
2019-03-03T02:31:48.987Z,95553.5
2019-03-03T02:32:51.408Z,95552.6
2019-03-03T02:33:53.853Z,95547.1
2019-03-03T02:34:56.290Z,95547.7
2019-03-03T02:35:58.726Z,95546.8
2019-03-03T02:37:01.181Z,95549.4
2019-03-03T02:38:03.633Z,95548.6
2019-03-03T02:39:06.058Z,95541.8
2019-03-03T02:40:08.223Z,95549.3
2019-03-03T02:41:10.396Z,95545.6
2019-03-03T02:42:12.558Z,95545.2
2019-03-03T02:43:14.711Z,95542.3
2019-03-03T02:44:17.166Z,95543.5
2019-03-03T02:45:19.590Z,95540.3
2019-03-03T02:46:22.087Z,95539.5
2019-03-03T02:47:24.250Z,95542.8
2019-03-03T02:48:26.409Z,95542.2
2019-03-03T02:49:28.593Z,95544.9
2019-03-03T02:50:31.015Z,95542.9
2019-03-03T02:51:33.439Z,95542.5
2019-03-03T02:52:35.611Z,95536.1
2019-03-03T02:53:37.778Z,95541.9
2019-03-03T02:54:40.210Z,95538.5
2019-03-03T02:55:42.640Z,95542.6
2019-03-03T02:56:44.795Z,95542.5
2019-03-03T02:57:47.219Z,95537.1
2019-03-03T02:58:49.115Z,95538.8
2019-03-03T02:59:51.261Z,95537.2
2019-03-03T03:00:53.675Z,95538.4
2019-03-03T03:01:56.109Z,95539.5
2019-03-03T03:02:58.546Z,95536.5
2019-03-03T03:04:01.010Z,95531.4
2019-03-03T03:05:03.167Z,95536.5
2019-03-03T03:06:05.328Z,95535.6
2019-03-03T03:07:07.500Z,95533.6
2019-03-03T03:08:09.366Z,95538.5
2019-03-03T03:09:11.808Z,95534.2
2019-03-03T03:10:13.939Z,95530.8
2019-03-03T03:11:16.350Z,95536.3
2019-03-03T03:12:18.517Z,95535.2
2019-03-03T03:13:20.952Z,95534.6
2019-03-03T03:14:23.103Z,95533.9
2019-03-03T03:15:25.241Z,95535.2
2019-03-03T03:16:27.667Z,95536.7
2019-03-03T03:17:30.090Z,95533.6
2019-03-03T03:18:32.524Z,95536.5
2019-03-03T03:19:34.944Z,95528.8
2019-03-03T03:20:37.096Z,95535.4
2019-03-03T03:21:39.532Z,95525.1
2019-03-03T03:22:41.687Z,95529
2019-03-03T03:23:44.107Z,95528.2
2019-03-03T03:24:46.255Z,95527.3
2019-03-03T03:25:48.701Z,95529.6
2019-03-03T03:26:50.855Z,95529.8
2019-03-03T03:27:53.007Z,95527.6
2019-03-03T03:28:55.136Z,95522.7
2019-03-03T03:29:57.286Z,95524.8
2019-03-03T03:30:59.440Z,95527.8
2019-03-03T03:32:01.994Z,95526.1
2019-03-03T03:33:04.229Z,95525.9
2019-03-03T03:34:06.661Z,95522.1
2019-03-03T03:35:08.799Z,95529
2019-03-03T03:36:11.224Z,95521.9
2019-03-03T03:37:13.657Z,95524.4
2019-03-03T03:38:16.081Z,95520.6
2019-03-03T03:39:18.513Z,95527.4
2019-03-03T03:40:20.939Z,95528.3
2019-03-03T03:41:23.367Z,95524.9
2019-03-03T03:42:25.792Z,95527.9
2019-03-03T03:43:28.228Z,95528.1
2019-03-03T03:44:30.652Z,95529.6
2019-03-03T03:45:33.077Z,95529.4
2019-03-03T03:46:35.224Z,95528.2
2019-03-03T03:47:37.670Z,95534
2019-03-03T03:48:40.099Z,95532.5
2019-03-03T03:49:42.528Z,95529.8
2019-03-03T03:50:44.397Z,95530.1
2019-03-03T03:51:46.561Z,95531.7
2019-03-03T03:52:48.979Z,95530.1
2019-03-03T03:53:51.426Z,95532
2019-03-03T03:54:53.850Z,95530.3
2019-03-03T03:55:56.387Z,95529.5
2019-03-03T03:56:58.623Z,95530.9
2019-03-03T03:58:01.044Z,95528.8
2019-03-03T03:59:03.476Z,95530.1
2019-03-03T04:00:05.920Z,95533.7
2019-03-03T04:01:08.091Z,95535.6
2019-03-03T04:02:09.957Z,95536.9
2019-03-03T04:03:12.445Z,95540
2019-03-03T04:04:14.874Z,95536.8
2019-03-03T04:05:17.296Z,95537.6
2019-03-03T04:06:19.456Z,95536.4
2019-03-03T04:07:21.894Z,95541.6
2019-03-03T04:08:24.335Z,95540.3
2019-03-03T04:09:26.499Z,95535.3
2019-03-03T04:10:28.660Z,95540
2019-03-03T04:11:31.134Z,95541.5
2019-03-03T04:12:33.567Z,95547.5
2019-03-03T04:13:35.997Z,95545.2
2019-03-03T04:14:38.451Z,95538.7
2019-03-03T04:15:40.597Z,95535.3
2019-03-03T04:16:43.024Z,95536.2
2019-03-03T04:17:45.450Z,95533.3
2019-03-03T04:18:47.887Z,95535.5
2019-03-03T04:19:50.315Z,95542.3
2019-03-03T04:20:52.740Z,95544.2
2019-03-03T04:21:54.901Z,95538.1
2019-03-03T04:22:57.328Z,95538.3
2019-03-03T04:23:59.755Z,95539.7
2019-03-03T04:25:02.192Z,95546.4
2019-03-03T04:26:04.643Z,95542.2
2019-03-03T04:27:06.801Z,95546.2
2019-03-03T04:28:08.946Z,95549.8
2019-03-03T04:29:11.089Z,95548.3
2019-03-03T04:30:13.258Z,95542.9
2019-03-03T04:31:15.681Z,95549.6
2019-03-03T04:32:17.850Z,95546.9
2019-03-03T04:33:19.749Z,95547.5
2019-03-03T04:34:22.195Z,95544
2019-03-03T04:35:24.621Z,95545.1
2019-03-03T04:36:26.764Z,95541
2019-03-03T04:37:28.904Z,95543
2019-03-03T04:38:31.337Z,95542.4
2019-03-03T04:39:33.473Z,95546.4
2019-03-03T04:40:35.898Z,95543.3
2019-03-03T04:41:38.058Z,95542.6
2019-03-03T04:42:39.947Z,95540
2019-03-03T04:43:42.099Z,95538.5
2019-03-03T04:44:44.273Z,95537.3
2019-03-03T04:45:46.726Z,95536.1
2019-03-03T04:46:49.156Z,95529.9
2019-03-03T04:47:51.577Z,95533.8
2019-03-03T04:48:53.723Z,95528.2
2019-03-03T04:49:55.879Z,95523.6
2019-03-03T04:50:58.033Z,95524.5
2019-03-03T04:52:00.179Z,95520.5
2019-03-03T04:53:02.309Z,95523.8
2019-03-03T04:54:04.169Z,95527.5
2019-03-03T04:55:06.581Z,95528.5
2019-03-03T04:56:08.999Z,95532.4
2019-03-03T04:57:11.417Z,95527.3
2019-03-03T04:58:13.836Z,95527.3
2019-03-03T04:59:15.732Z,95522.3
2019-03-03T05:00:18.143Z,95521.4
2019-03-03T05:01:20.283Z,95519.3
2019-03-03T05:02:22.431Z,95520.5
2019-03-03T05:03:24.863Z,95520
2019-03-03T05:04:27.031Z,95517
2019-03-03T05:05:28.914Z,95509.7
2019-03-03T05:06:31.066Z,95511.7
2019-03-03T05:07:33.225Z,95505.6
2019-03-03T05:08:35.394Z,95508.1
2019-03-03T05:09:37.819Z,95506.2
2019-03-03T05:10:40.246Z,95500.3
2019-03-03T05:11:42.131Z,95510.5
2019-03-03T05:12:44.583Z,95511.4
2019-03-03T05:13:46.737Z,95508.8
2019-03-03T05:14:49.165Z,95507.6
2019-03-03T05:15:51.639Z,95505.1
2019-03-03T05:16:53.502Z,95505.8
2019-03-03T05:17:55.653Z,95504.8
2019-03-03T05:18:58.096Z,95510
2019-03-03T05:20:00.565Z,95505.6
2019-03-03T05:21:02.999Z,95510.4
2019-03-03T05:22:05.421Z,95507.1
2019-03-03T05:23:07.576Z,95507.5
2019-03-03T05:24:10.005Z,95505.2
2019-03-03T05:25:12.419Z,95508.1
2019-03-03T05:26:14.844Z,95505.4
2019-03-03T05:27:17.277Z,95503.2
2019-03-03T05:28:19.696Z,95498
2019-03-03T05:29:21.847Z,95505.1
2019-03-03T05:30:24.287Z,95508.3
2019-03-03T05:31:26.719Z,95505.9
2019-03-03T05:32:31.286Z,95504.8
2019-03-03T05:33:33.461Z,95507.7
2019-03-03T05:34:35.889Z,95501.6
2019-03-03T05:35:38.049Z,95500.3
2019-03-03T05:36:40.479Z,95502.3
2019-03-03T05:37:42.087Z,95505.8
2019-03-03T05:38:43.938Z,95503.3
2019-03-03T05:39:45.839Z,95505
2019-03-03T05:40:48.282Z,95500.7
2019-03-03T05:41:50.707Z,95499.6
2019-03-03T05:42:53.127Z,95502.4
2019-03-03T05:43:55.560Z,95502.7
2019-03-03T05:44:57.973Z,95497.4
2019-03-03T05:45:59.829Z,95495
2019-03-03T05:47:01.442Z,95493.5
2019-03-03T05:48:03.855Z,95489.6
2019-03-03T05:49:05.998Z,95484.1
2019-03-03T05:50:08.129Z,95483.8
2019-03-03T05:51:10.269Z,95484
2019-03-03T05:52:12.699Z,95484.5
2019-03-03T05:53:14.841Z,95486.3
2019-03-03T05:54:17.001Z,95490.4
2019-03-03T05:55:19.156Z,95489.7
2019-03-03T05:56:21.586Z,95493.5
2019-03-03T05:57:23.757Z,95498.5
2019-03-03T05:58:26.181Z,95494.7
2019-03-03T05:59:28.609Z,95496.1
2019-03-03T06:00:31.036Z,95496.8
2019-03-03T06:01:33.475Z,95493.2
2019-03-03T06:02:35.656Z,95493.2
2019-03-03T06:03:38.085Z,95498.3
2019-03-03T06:04:40.529Z,95498.9
2019-03-03T06:05:42.438Z,95496.2
2019-03-03T06:06:44.883Z,95498
2019-03-03T06:07:47.059Z,95494.6
2019-03-03T06:08:49.484Z,95488.2
2019-03-03T06:09:51.898Z,95491.1
2019-03-03T06:10:54.333Z,95495.5
2019-03-03T06:11:56.767Z,95493.6
2019-03-03T06:12:58.911Z,95497
2019-03-03T06:14:00.777Z,95492.6
2019-03-03T06:15:03.209Z,95487.1
2019-03-03T06:16:05.631Z,95493.8
2019-03-03T06:17:08.052Z,95493
2019-03-03T06:18:10.476Z,95492.2
2019-03-03T06:19:12.609Z,95488.6
2019-03-03T06:20:15.038Z,95489.1
2019-03-03T06:21:17.170Z,95486.9
2019-03-03T06:22:19.323Z,95489.3
2019-03-03T06:23:21.203Z,95488.3
2019-03-03T06:24:23.629Z,95484.2
2019-03-03T06:25:26.069Z,95486
2019-03-03T06:26:28.491Z,95479.8
2019-03-03T06:27:30.663Z,95480
2019-03-03T06:28:32.819Z,95480.9
2019-03-03T06:29:34.976Z,95476.9
2019-03-03T06:30:37.117Z,95480.9
2019-03-03T06:31:39.545Z,95479.6
2019-03-03T06:32:41.446Z,95483.8
2019-03-03T06:33:43.931Z,95486.8
2019-03-03T06:34:46.092Z,95486
2019-03-03T06:35:48.509Z,95488.7
2019-03-03T06:36:50.927Z,95488.9
2019-03-03T06:37:53.361Z,95489.7
2019-03-03T06:38:55.789Z,95488.3
2019-03-03T06:39:58.207Z,95484.5
2019-03-03T06:41:00.367Z,95486
2019-03-03T06:42:02.801Z,95486.3
2019-03-03T06:43:05.223Z,95489.2
2019-03-03T06:44:07.657Z,95487
2019-03-03T06:45:09.290Z,95487.1
2019-03-03T06:46:11.448Z,95488.9
2019-03-03T06:47:13.611Z,95484.3
2019-03-03T06:48:15.482Z,95487.9
2019-03-03T06:49:17.638Z,95489.4
2019-03-03T06:50:20.078Z,95485.1
2019-03-03T06:51:22.498Z,95488.3
2019-03-03T06:52:24.112Z,95486.1
2019-03-03T06:53:26.264Z,95487.2
2019-03-03T06:54:28.417Z,95488.3
2019-03-03T06:55:30.934Z,95490.9
2019-03-03T06:56:33.137Z,95486.6
2019-03-03T06:57:35.018Z,95489.9
2019-03-03T06:58:37.465Z,95489.1
2019-03-03T06:59:39.897Z,95488.3
2019-03-03T07:00:42.328Z,95484.4
2019-03-03T07:01:44.755Z,95485.4
2019-03-03T07:02:46.337Z,95484.7
2019-03-03T07:03:48.770Z,95478.2
2019-03-03T07:04:50.952Z,95479.6
2019-03-03T07:05:52.852Z,95478.7
2019-03-03T07:06:55.279Z,95478.7
2019-03-03T07:07:57.709Z,95480.2
2019-03-03T07:08:59.858Z,95477.4
2019-03-03T07:10:01.461Z,95473.6
2019-03-03T07:11:03.628Z,95477.8
2019-03-03T07:12:06.053Z,95471.7
2019-03-03T07:13:08.220Z,95474.2
2019-03-03T07:14:10.688Z,95474.3
2019-03-03T07:15:12.840Z,95479.2
2019-03-03T07:16:15.265Z,95471.9
2019-03-03T07:17:17.688Z,95471.4
2019-03-03T07:18:19.832Z,95471.2
2019-03-03T07:19:21.718Z,95468.7
2019-03-03T07:20:24.146Z,95472.8
2019-03-03T07:21:26.019Z,95471.8
2019-03-03T07:22:27.930Z,95466.2
2019-03-03T07:23:30.357Z,95467.7
2019-03-03T07:24:32.560Z,95467.5
2019-03-03T07:25:34.704Z,95471.2
2019-03-03T07:26:37.130Z,95466.6
2019-03-03T07:27:39.304Z,95469.6
2019-03-03T07:28:41.465Z,95468
2019-03-03T07:29:43.588Z,95466.9
2019-03-03T07:30:46.029Z,95466.1
2019-03-03T07:31:48.446Z,95469.1
2019-03-03T07:32:50.879Z,95471.8
2019-03-03T07:33:53.314Z,95458.9
2019-03-03T07:34:55.750Z,95461.2
2019-03-03T07:35:57.901Z,95451.6
2019-03-03T07:37:00.031Z,95457.5
2019-03-03T07:38:02.465Z,95461.7
2019-03-03T07:39:04.894Z,95457.6
2019-03-03T07:40:07.280Z,95466.6
2019-03-03T07:41:09.599Z,95467.1
2019-03-03T07:42:11.450Z,95461.2
2019-03-03T07:43:13.621Z,95465.8
2019-03-03T07:44:16.049Z,95474.5
2019-03-03T07:45:18.558Z,95469.2
2019-03-03T07:46:21.030Z,95474.3
2019-03-03T07:47:23.505Z,95471.5
2019-03-03T07:48:25.922Z,95478.2
2019-03-03T07:49:28.350Z,95474.6
2019-03-03T07:50:30.529Z,95474.9
2019-03-03T07:51:32.946Z,95477.7
2019-03-03T07:52:35.392Z,95472.3
2019-03-03T07:53:37.553Z,95478.6
2019-03-03T07:54:39.988Z,95477.7
2019-03-03T07:55:42.418Z,95475.6
2019-03-03T07:56:44.835Z,95477.8
2019-03-03T07:57:48.419Z,95474.6
2019-03-03T07:58:50.858Z,95479.1
2019-03-03T07:59:52.747Z,95481.3
2019-03-03T08:00:54.880Z,95480.7
2019-03-03T08:01:57.318Z,95483
2019-03-03T08:02:59.749Z,95486
2019-03-03T08:04:02.197Z,95479.7
2019-03-03T08:05:04.628Z,95484.3
2019-03-03T08:06:06.775Z,95482.4
2019-03-03T08:07:09.220Z,95484.8
2019-03-03T08:08:11.390Z,95485.6
2019-03-03T08:09:13.850Z,95484.4
2019-03-03T08:10:16.280Z,95477.1
2019-03-03T08:11:18.713Z,95481.4
2019-03-03T08:12:21.142Z,95482.6
2019-03-03T08:13:23.570Z,95481.8
2019-03-03T08:14:25.992Z,95477.5
2019-03-03T08:15:28.421Z,95479.8
2019-03-03T08:16:30.857Z,95474.2
2019-03-03T08:17:33.280Z,95485.6
2019-03-03T08:18:35.150Z,95473.3
2019-03-03T08:19:37.310Z,95474.4
2019-03-03T08:20:40.987Z,95475.9
2019-03-03T08:21:43.641Z,95470.4
2019-03-03T08:22:46.071Z,95477.4
2019-03-03T08:23:48.240Z,95472.9
2019-03-03T08:24:52.360Z,95478
2019-03-03T08:25:54.509Z,95472.8
2019-03-03T08:26:56.955Z,95469
2019-03-03T08:27:59.118Z,95464.1
2019-03-03T08:29:01.548Z,95464.1
2019-03-03T08:30:03.705Z,95465.9
2019-03-03T08:31:06.168Z,95459.6
2019-03-03T08:32:08.311Z,95466.3
2019-03-03T08:33:10.735Z,95461.9
2019-03-03T08:34:13.161Z,95462.8
2019-03-03T08:35:15.589Z,95466.5
2019-03-03T08:36:17.799Z,95458.9
2019-03-03T08:37:20.240Z,95459.7
2019-03-03T08:38:22.686Z,95461.7
2019-03-03T08:39:24.860Z,95462.6
2019-03-03T08:40:27.332Z,95461.8
2019-03-03T08:41:29.763Z,95463
2019-03-03T08:42:32.189Z,95456.1
2019-03-03T08:43:34.628Z,95453.2
2019-03-03T08:44:37.057Z,95458.7
2019-03-03T08:45:39.210Z,95452.7
2019-03-03T08:46:41.753Z,95453.7
2019-03-03T08:48:49.420Z,95458
2019-03-03T08:49:51.309Z,95457.8
2019-03-03T08:50:53.458Z,95456.7
2019-03-03T08:51:55.364Z,95461
2019-03-03T08:52:57.795Z,95458.5
2019-03-03T08:53:59.944Z,95458.3
2019-03-03T08:55:02.365Z,95463
2019-03-03T08:56:04.560Z,95459.2
2019-03-03T08:57:07.005Z,95456.2
2019-03-03T08:58:09.161Z,95462.2
2019-03-03T08:59:11.588Z,95460.3
2019-03-03T09:00:14.008Z,95449.6
2019-03-03T09:01:16.168Z,95464.8
2019-03-03T09:02:18.609Z,95448.7
2019-03-03T09:03:21.041Z,95454.5
2019-03-03T09:04:23.503Z,95453.4
2019-03-03T09:05:25.931Z,95444.3
2019-03-03T09:06:28.411Z,95451.7
2019-03-03T09:07:30.851Z,95452.1
2019-03-03T09:08:33.001Z,95445.8
2019-03-03T09:09:35.424Z,95443.8
2019-03-03T09:10:37.560Z,95443.4
2019-03-03T09:11:39.991Z,95436.3
2019-03-03T09:12:42.435Z,95432.4
2019-03-03T09:13:44.877Z,95433.1
2019-03-03T09:14:47.056Z,95437.2
2019-03-03T09:15:49.233Z,95430.6
2019-03-03T09:16:51.401Z,95427
2019-03-03T09:17:53.850Z,95427.7
2019-03-03T09:18:56.030Z,95428.9
2019-03-03T09:19:58.471Z,95421.8
2019-03-03T09:21:00.890Z,95422.9
2019-03-03T09:22:05.197Z,95425.1
2019-03-03T09:23:07.636Z,95422.8
2019-03-03T09:24:09.785Z,95425.3
2019-03-03T09:25:12.211Z,95423.3
2019-03-03T09:26:14.372Z,95421.5
2019-03-03T09:27:16.553Z,95416.1
2019-03-03T09:28:18.729Z,95420.2
2019-03-03T09:29:21.169Z,95410.6
2019-03-03T09:30:23.602Z,95410.1
2019-03-03T09:31:26.032Z,95415.8
2019-03-03T09:32:28.462Z,95423.6
2019-03-03T09:33:30.624Z,95405.8
2019-03-03T09:34:33.071Z,95406.6
2019-03-03T09:35:35.515Z,95413.1
2019-03-03T09:36:37.663Z,95413.4
2019-03-03T09:37:40.109Z,95413.9
2019-03-03T09:38:42.540Z,95410
2019-03-03T09:39:44.960Z,95418.4
2019-03-03T09:40:47.384Z,95413.1
2019-03-03T09:41:49.822Z,95408.3
2019-03-03T09:42:51.972Z,95407.5
2019-03-03T09:43:54.393Z,95409.2
2019-03-03T09:44:56.540Z,95407
2019-03-03T09:45:58.989Z,95412
2019-03-03T09:47:01.411Z,95409.3
2019-03-03T09:48:03.842Z,95407
2019-03-03T09:49:06.291Z,95406.4
2019-03-03T09:50:08.720Z,95410.9
2019-03-03T09:51:10.884Z,95415.5
2019-03-03T09:52:13.326Z,95415.4
2019-03-03T09:53:15.744Z,95405
2019-03-03T09:54:18.176Z,95409
2019-03-03T09:55:20.600Z,95410
2019-03-03T09:56:22.497Z,95410.6
2019-03-03T09:57:24.958Z,95411.3
2019-03-03T09:58:27.106Z,95410.7
2019-03-03T09:59:29.534Z,95413.9
2019-03-03T10:00:31.672Z,95404.4
2019-03-03T10:01:34.105Z,95416
2019-03-03T10:02:36.267Z,95411.8
2019-03-03T10:03:38.455Z,95414.5
2019-03-03T10:04:40.343Z,95406.9
2019-03-03T10:05:42.504Z,95412.5
2019-03-03T10:06:44.670Z,95415.8
2019-03-03T10:07:47.105Z,95412
2019-03-03T10:08:48.984Z,95418.1
2019-03-03T10:09:51.140Z,95419
2019-03-03T10:10:53.061Z,95415.3
2019-03-03T10:11:55.500Z,95423.8
2019-03-03T10:12:57.926Z,95425.7
2019-03-03T10:14:00.357Z,95420.9
2019-03-03T10:15:02.791Z,95422.6
2019-03-03T10:16:04.951Z,95427.4
2019-03-03T10:17:07.116Z,95430.5
2019-03-03T10:18:09.550Z,95426.9
2019-03-03T10:19:11.709Z,95422.3
2019-03-03T10:20:14.137Z,95424.7
2019-03-03T10:21:16.580Z,95417
2019-03-03T10:22:18.447Z,95423.5
2019-03-03T10:23:20.619Z,95421.2
2019-03-03T10:24:23.056Z,95417.1
2019-03-03T10:25:25.200Z,95415.6
2019-03-03T10:26:27.657Z,95414.7
2019-03-03T10:27:30.079Z,95414.4
2019-03-03T10:28:32.512Z,95414
2019-03-03T10:29:34.937Z,95415.3
2019-03-03T10:30:37.111Z,95409
2019-03-03T10:31:38.971Z,95413.3
2019-03-03T10:32:40.858Z,95410
2019-03-03T10:33:43.011Z,95412.9
2019-03-03T10:34:45.160Z,95404.1
2019-03-03T10:35:47.320Z,95402.1
2019-03-03T10:36:49.767Z,95414.6
2019-03-03T10:37:52.205Z,95410.1
2019-03-03T10:38:54.081Z,95401.7
2019-03-03T10:39:56.540Z,95400.6
2019-03-03T10:40:58.977Z,95394.2
2019-03-03T10:42:01.121Z,95396.8
2019-03-03T10:43:03.280Z,95397.7
2019-03-03T10:44:05.430Z,95393.7
2019-03-03T10:45:07.855Z,95398.6
2019-03-03T10:46:10.281Z,95394.3
2019-03-03T10:47:12.719Z,95402.5
2019-03-03T10:48:14.873Z,95401.2
2019-03-03T10:49:17.304Z,95388.5
2019-03-03T10:50:19.731Z,95400.4
2019-03-03T10:51:21.904Z,95397.6
2019-03-03T10:52:24.339Z,95397.7
2019-03-03T10:53:26.771Z,95397.3
2019-03-03T10:54:28.633Z,95400.1
2019-03-03T10:55:31.071Z,95399.7
2019-03-03T10:56:33.212Z,95397.8
2019-03-03T10:57:35.671Z,95395.8
2019-03-03T10:58:37.830Z,95397.8
2019-03-03T10:59:40.281Z,95394.4
2019-03-03T11:00:42.431Z,95391
2019-03-03T11:01:44.875Z,95399.1
2019-03-03T11:02:47.013Z,95388.7
2019-03-03T11:03:49.467Z,95390.8
2019-03-03T11:04:51.630Z,95387.1
2019-03-03T11:05:53.775Z,95398
2019-03-03T11:06:56.224Z,95391.3
2019-03-03T11:07:58.378Z,95395.5
2019-03-03T11:09:00.830Z,95396.1
2019-03-03T11:10:02.987Z,95389.1
2019-03-03T11:11:05.409Z,95398
2019-03-03T11:12:07.837Z,95385.6
2019-03-03T11:13:10.260Z,95388.6
2019-03-03T11:14:12.711Z,95392.6
2019-03-03T11:16:19.840Z,95390.8
2019-03-03T11:17:22.265Z,95389.1
2019-03-03T11:18:24.421Z,95401.8
2019-03-03T11:19:26.573Z,95395.5
2019-03-03T11:20:28.747Z,95401.4
2019-03-03T11:21:31.197Z,95394.6
2019-03-03T11:22:33.621Z,95396
2019-03-03T11:23:36.053Z,95394.5
2019-03-03T11:24:38.208Z,95395.9
2019-03-03T11:25:40.397Z,95392
2019-03-03T11:26:42.830Z,95392
2019-03-03T11:27:44.993Z,95390.2
2019-03-03T11:28:47.408Z,95387.9
2019-03-03T11:29:49.288Z,95383.5
2019-03-03T11:30:51.721Z,95388.3
2019-03-03T11:31:54.150Z,95382.6
2019-03-03T11:32:56.582Z,95385.2
2019-03-03T11:33:59.010Z,95378.3
2019-03-03T11:35:01.174Z,95375.2
2019-03-03T11:36:03.331Z,95384.5
2019-03-03T11:37:05.471Z,95381.6
2019-03-03T11:38:07.336Z,95382.2
2019-03-03T11:39:09.757Z,95378.2
2019-03-03T11:40:11.619Z,95368.6
2019-03-03T11:41:14.060Z,95374.3
2019-03-03T11:42:16.492Z,95369.2
2019-03-03T11:43:18.666Z,95361.6
2019-03-03T11:44:21.105Z,95363.8
2019-03-03T11:45:23.003Z,95360.7
2019-03-03T11:46:25.446Z,95357.3
2019-03-03T11:47:27.876Z,95363.5
2019-03-03T11:48:30.031Z,95351.6
2019-03-03T11:49:32.200Z,95344.6
2019-03-03T11:50:34.637Z,95348.3
2019-03-03T11:51:37.079Z,95347
2019-03-03T11:52:39.510Z,95347.8
2019-03-03T11:53:41.936Z,95344.3
2019-03-03T11:54:44.096Z,95342.9
2019-03-03T11:55:46.532Z,95346.7
2019-03-03T11:56:48.954Z,95344
2019-03-03T11:57:51.378Z,95343.4
2019-03-03T11:58:53.562Z,95343.1
2019-03-03T11:59:55.722Z,95341.2
2019-03-03T12:00:57.909Z,95343
2019-03-03T12:02:00.339Z,95337.4
2019-03-03T12:03:02.761Z,95326.9
2019-03-03T12:04:05.197Z,95337.6
2019-03-03T12:05:07.635Z,95334.4
2019-03-03T12:06:10.068Z,95333.3
2019-03-03T12:07:12.227Z,95329.5
2019-03-03T12:08:14.673Z,95321.7
2019-03-03T12:09:17.140Z,95316.8
2019-03-03T12:10:19.325Z,95321.3
2019-03-03T12:11:21.219Z,95313.3
2019-03-03T12:12:23.657Z,95324.3
2019-03-03T12:13:26.093Z,95321.3
2019-03-03T12:14:28.534Z,95313.3
2019-03-03T12:15:30.967Z,95307.5
2019-03-03T12:16:33.395Z,95309.9
2019-03-03T12:17:35.830Z,95310.2
2019-03-03T12:18:38.256Z,95305.1
2019-03-03T12:19:40.689Z,95303.2
2019-03-03T12:20:43.154Z,95303.8
2019-03-03T12:21:45.602Z,95300.3
2019-03-03T12:22:47.770Z,95306.8
2019-03-03T12:23:50.194Z,95301.4
2019-03-03T12:24:52.344Z,95303.2
2019-03-03T12:25:54.509Z,95296.4
2019-03-03T12:26:56.931Z,95299
2019-03-03T12:27:59.361Z,95302.2
2019-03-03T12:29:01.812Z,95301
2019-03-03T12:30:03.958Z,95292.2
2019-03-03T12:31:05.844Z,95289.9
2019-03-03T12:32:07.995Z,95291.3
2019-03-03T12:33:10.421Z,95291.7
2019-03-03T12:34:12.578Z,95287.5
2019-03-03T12:35:15.016Z,95288.8
2019-03-03T12:36:17.173Z,95284.9
2019-03-03T12:37:21.299Z,95295.2
2019-03-03T12:38:23.741Z,95291.8
2019-03-03T12:39:26.200Z,95289.5
2019-03-03T12:40:28.369Z,95294.8
2019-03-03T12:41:30.537Z,95290.2